sensor_id;sensor_type;location;lat;lon;timestamp;pressure;altitude;pressure_sealevel;temperature;humidity
40940;BME280;26666;50.156;7.700;2023-04-25T00:01:47;99857.19;;;9.75;100.00
40940;BME280;26666;50.156;7.700;2023-04-25T00:06:50;99854.41;;;9.86;100.00
40940;BME280;26666;50.156;7.700;2023-04-25T00:11:52;99851.59;;;9.78;100.00
40940;BME280;26666;50.156;7.700;2023-04-25T00:16:54;99852.31;;;9.90;100.00
40940;BME280;26666;50.156;7.700;2023-04-25T00:21:57;99853.97;;;9.72;100.00
40940;BME280;26666;50.156;7.700;2023-04-25T00:26:59;99853.56;;;9.66;100.00
40940;BME280;26666;50.156;7.700;2023-04-25T00:32:01;99856.88;;;9.59;100.00
40940;BME280;26666;50.156;7.700;2023-04-25T00:37:04;99856.31;;;9.55;100.00
40940;BME280;26666;50.156;7.700;2023-04-25T00:42:06;99851.03;;;9.75;100.00
40940;BME280;26666;50.156;7.700;2023-04-25T00:47:10;99842.44;;;9.73;100.00
40940;BME280;26666;50.156;7.700;2023-04-25T00:52:13;99836.63;;;9.59;100.00
40940;BME280;26666;50.156;7.700;2023-04-25T00:57:15;99834.25;;;9.56;100.00
40940;BME280;26666;50.156;7.700;2023-04-25T01:02:17;99838.97;;;9.62;100.00
40940;BME280;26666;50.156;7.700;2023-04-25T01:07:20;99845.22;;;9.42;100.00
40940;BME280;26666;50.156;7.700;2023-04-25T01:12:23;99845.38;;;9.60;100.00
40940;BME280;26666;50.156;7.700;2023-04-25T01:17:24;99842.81;;;9.29;100.00
40940;BME280;26666;50.156;7.700;2023-04-25T01:22:28;99835.84;;;9.28;100.00
40940;BME280;26666;50.156;7.700;2023-04-25T01:27:29;99832.69;;;9.24;100.00
40940;BME280;26666;50.156;7.700;2023-04-25T01:32:32;99828.25;;;9.25;100.00
40940;BME280;26666;50.156;7.700;2023-04-25T01:37:36;99828.81;;;9.28;100.00
40940;BME280;26666;50.156;7.700;2023-04-25T01:42:41;99836.59;;;9.30;100.00
40940;BME280;26666;50.156;7.700;2023-04-25T01:47:44;99839.50;;;9.37;100.00
40940;BME280;26666;50.156;7.700;2023-04-25T01:52:47;99841.84;;;9.20;100.00
40940;BME280;26666;50.156;7.700;2023-04-25T01:57:48;99840.06;;;9.40;100.00
40940;BME280;26666;50.156;7.700;2023-04-25T02:02:50;99848.69;;;9.52;100.00
40940;BME280;26666;50.156;7.700;2023-04-25T02:07:53;99852.69;;;9.46;100.00
40940;BME280;26666;50.156;7.700;2023-04-25T02:12:56;99852.16;;;9.53;100.00
40940;BME280;26666;50.156;7.700;2023-04-25T02:17:58;99846.28;;;9.39;100.00
40940;BME280;26666;50.156;7.700;2023-04-25T02:23:01;99845.44;;;9.29;100.00
40940;BME280;26666;50.156;7.700;2023-04-25T02:28:03;99842.16;;;9.46;100.00
40940;BME280;26666;50.156;7.700;2023-04-25T02:33:05;99846.03;;;9.42;100.00
40940;BME280;26666;50.156;7.700;2023-04-25T02:38:08;99837.38;;;9.21;100.00
40940;BME280;26666;50.156;7.700;2023-04-25T02:43:10;99844.31;;;8.81;100.00
40940;BME280;26666;50.156;7.700;2023-04-25T02:48:12;99841.72;;;8.91;100.00
40940;BME280;26666;50.156;7.700;2023-04-25T02:53:15;99849.88;;;9.19;100.00
40940;BME280;26666;50.156;7.700;2023-04-25T02:58:16;99852.94;;;9.34;100.00
40940;BME280;26666;50.156;7.700;2023-04-25T03:03:18;99846.75;;;9.04;100.00
40940;BME280;26666;50.156;7.700;2023-04-25T03:08:21;99843.75;;;9.18;100.00
40940;BME280;26666;50.156;7.700;2023-04-25T03:13:23;99837.66;;;9.27;100.00
40940;BME280;26666;50.156;7.700;2023-04-25T03:18:25;99833.50;;;9.15;100.00
40940;BME280;26666;50.156;7.700;2023-04-25T03:23:28;99842.22;;;9.16;100.00
40940;BME280;26666;50.156;7.700;2023-04-25T03:28:30;99840.16;;;8.79;100.00
40940;BME280;26666;50.156;7.700;2023-04-25T03:33:31;99849.53;;;8.72;100.00
40940;BME280;26666;50.156;7.700;2023-04-25T03:38:35;99848.38;;;8.85;100.00
40940;BME280;26666;50.156;7.700;2023-04-25T03:43:36;99852.03;;;9.04;100.00
40940;BME280;26666;50.156;7.700;2023-04-25T03:48:38;99857.13;;;8.65;100.00
40940;BME280;26666;50.156;7.700;2023-04-25T03:53:41;99868.66;;;8.64;100.00
40940;BME280;26666;50.156;7.700;2023-04-25T03:58:43;99871.13;;;8.65;100.00
40940;BME280;26666;50.156;7.700;2023-04-25T04:03:45;99879.09;;;8.33;100.00
40940;BME280;26666;50.156;7.700;2023-04-25T04:08:48;99875.25;;;8.37;100.00
40940;BME280;26666;50.156;7.700;2023-04-25T04:13:50;99884.81;;;8.38;100.00
40940;BME280;26666;50.156;7.700;2023-04-25T04:18:52;99878.25;;;8.12;100.00
40940;BME280;26666;50.156;7.700;2023-04-25T04:23:55;99886.25;;;8.42;100.00
40940;BME280;26666;50.156;7.700;2023-04-25T04:28:57;99886.19;;;8.54;100.00
40940;BME280;26666;50.156;7.700;2023-04-25T04:33:58;99894.25;;;8.41;100.00
40940;BME280;26666;50.156;7.700;2023-04-25T04:39:01;99896.19;;;8.39;100.00
40940;BME280;26666;50.156;7.700;2023-04-25T04:44:03;99903.06;;;8.72;100.00
40940;BME280;26666;50.156;7.700;2023-04-25T04:49:07;99900.91;;;8.87;100.00
40940;BME280;26666;50.156;7.700;2023-04-25T04:54:10;99910.41;;;8.68;100.00
40940;BME280;26666;50.156;7.700;2023-04-25T04:59:11;99910.44;;;8.78;100.00
40940;BME280;26666;50.156;7.700;2023-04-25T05:04:13;99921.09;;;8.77;100.00
40940;BME280;26666;50.156;7.700;2023-04-25T05:09:16;99922.38;;;8.82;100.00
40940;BME280;26666;50.156;7.700;2023-04-25T05:14:18;99923.50;;;9.11;100.00
40940;BME280;26666;50.156;7.700;2023-04-25T05:19:19;99929.56;;;9.01;100.00
40940;BME280;26666;50.156;7.700;2023-04-25T05:24:22;99933.63;;;9.46;100.00
40940;BME280;26666;50.156;7.700;2023-04-25T05:29:24;99930.53;;;10.50;90.08
40940;BME280;26666;50.156;7.700;2023-04-25T05:34:26;99939.03;;;11.38;86.41
40940;BME280;26666;50.156;7.700;2023-04-25T05:39:29;99948.09;;;12.45;80.70
40940;BME280;26666;50.156;7.700;2023-04-25T05:44:30;99953.19;;;11.74;85.06
40940;BME280;26666;50.156;7.700;2023-04-25T05:49:32;99956.81;;;10.61;87.93
40940;BME280;26666;50.156;7.700;2023-04-25T05:54:35;99969.94;;;9.73;93.07
40940;BME280;26666;50.156;7.700;2023-04-25T05:59:37;99960.63;;;9.69;92.39
40940;BME280;26666;50.156;7.700;2023-04-25T06:04:38;99966.06;;;9.37;93.51
40940;BME280;26666;50.156;7.700;2023-04-25T06:09:43;99977.88;;;9.42;92.18
40940;BME280;26666;50.156;7.700;2023-04-25T06:14:44;99976.97;;;9.63;98.79
40940;BME280;26666;50.156;7.700;2023-04-25T06:19:46;99986.53;;;10.14;89.90
40940;BME280;26666;50.156;7.700;2023-04-25T06:24:49;99977.41;;;10.48;90.29
40940;BME280;26666;50.156;7.700;2023-04-25T06:29:51;99980.53;;;11.00;84.63
40940;BME280;26666;50.156;7.700;2023-04-25T06:34:52;99980.69;;;10.79;84.94
40940;BME280;26666;50.156;7.700;2023-04-25T06:39:55;99986.47;;;11.77;84.74
40940;BME280;26666;50.156;7.700;2023-04-25T06:44:57;99987.09;;;12.16;81.46
40940;BME280;26666;50.156;7.700;2023-04-25T06:49:59;99988.25;;;11.21;80.98
40940;BME280;26666;50.156;7.700;2023-04-25T06:55:02;99989.38;;;11.56;79.64
40940;BME280;26666;50.156;7.700;2023-04-25T07:00:05;100003.53;;;10.51;82.93
40940;BME280;26666;50.156;7.700;2023-04-25T07:05:07;100012.91;;;10.04;85.14
40940;BME280;26666;50.156;7.700;2023-04-25T07:10:10;100011.03;;;9.76;86.32
40940;BME280;26666;50.156;7.700;2023-04-25T07:15:12;100008.22;;;9.67;87.38
40940;BME280;26666;50.156;7.700;2023-04-25T07:20:14;100022.03;;;9.81;86.32
40940;BME280;26666;50.156;7.700;2023-04-25T07:25:17;100030.03;;;9.70;84.89
40940;BME280;26666;50.156;7.700;2023-04-25T07:30:19;100035.56;;;10.17;85.03
40940;BME280;26666;50.156;7.700;2023-04-25T07:35:20;100024.38;;;10.54;85.16
40940;BME280;26666;50.156;7.700;2023-04-25T07:40:23;100031.06;;;11.34;78.50
40940;BME280;26666;50.156;7.700;2023-04-25T07:45:25;100039.09;;;10.37;83.98
40940;BME280;26666;50.156;7.700;2023-04-25T07:50:27;100041.00;;;9.75;82.76
40940;BME280;26666;50.156;7.700;2023-04-25T07:55:30;100062.53;;;9.70;81.96
40940;BME280;26666;50.156;7.700;2023-04-25T08:00:32;100059.41;;;9.96;82.76
40940;BME280;26666;50.156;7.700;2023-04-25T08:05:33;100054.66;;;9.80;80.40
40940;BME280;26666;50.156;7.700;2023-04-25T08:10:36;100071.91;;;10.34;83.50
40940;BME280;26666;50.156;7.700;2023-04-25T08:15:38;100076.97;;;10.06;82.48
40940;BME280;26666;50.156;7.700;2023-04-25T08:20:40;100079.59;;;10.06;84.67
40940;BME280;26666;50.156;7.700;2023-04-25T08:25:43;100087.66;;;9.43;85.58
40940;BME280;26666;50.156;7.700;2023-04-25T08:30:44;100096.31;;;9.86;86.59
40940;BME280;26666;50.156;7.700;2023-04-25T08:35:48;100098.22;;;10.75;83.11
40940;BME280;26666;50.156;7.700;2023-04-25T08:40:52;100092.66;;;10.88;79.59
40940;BME280;26666;50.156;7.700;2023-04-25T08:45:59;100108.63;;;10.47;80.63
40940;BME280;26666;50.156;7.700;2023-04-25T08:51:02;100111.53;;;10.44;83.58
40940;BME280;26666;50.156;7.700;2023-04-25T08:56:06;100120.19;;;10.95;82.26
40940;BME280;26666;50.156;7.700;2023-04-25T09:01:08;100115.94;;;11.60;76.56
40940;BME280;26666;50.156;7.700;2023-04-25T09:06:10;100113.44;;;11.59;79.18
40940;BME280;26666;50.156;7.700;2023-04-25T09:11:14;100133.72;;;11.21;78.90
40940;BME280;26666;50.156;7.700;2023-04-25T09:16:15;100138.69;;;10.65;76.02
40940;BME280;26666;50.156;7.700;2023-04-25T09:21:17;100146.06;;;11.01;76.94
40940;BME280;26666;50.156;7.700;2023-04-25T09:26:20;100147.66;;;11.80;71.23
40940;BME280;26666;50.156;7.700;2023-04-25T09:31:23;100153.56;;;11.54;72.28
40940;BME280;26666;50.156;7.700;2023-04-25T09:36:26;100167.78;;;11.04;72.85
40940;BME280;26666;50.156;7.700;2023-04-25T09:41:29;100163.06;;;10.89;73.48
40940;BME280;26666;50.156;7.700;2023-04-25T09:46:34;100178.22;;;10.87;71.96
40940;BME280;26666;50.156;7.700;2023-04-25T09:51:36;100189.66;;;10.46;70.39
40940;BME280;26666;50.156;7.700;2023-04-25T09:56:40;100190.50;;;10.37;71.44
40940;BME280;26666;50.156;7.700;2023-04-25T10:01:43;100196.00;;;10.65;70.80
40940;BME280;26666;50.156;7.700;2023-04-25T10:06:45;100197.56;;;11.36;68.45
40940;BME280;26666;50.156;7.700;2023-04-25T10:11:50;100202.03;;;11.45;70.11
40940;BME280;26666;50.156;7.700;2023-04-25T10:16:51;100205.25;;;11.29;71.32
40940;BME280;26666;50.156;7.700;2023-04-25T10:21:58;100204.81;;;11.04;69.41
40940;BME280;26666;50.156;7.700;2023-04-25T10:27:04;100203.84;;;11.05;70.19
40940;BME280;26666;50.156;7.700;2023-04-25T10:32:06;100213.31;;;11.28;68.86
40940;BME280;26666;50.156;7.700;2023-04-25T10:37:09;100208.72;;;11.49;68.24
40940;BME280;26666;50.156;7.700;2023-04-25T10:42:13;100215.00;;;12.15;65.10
40940;BME280;26666;50.156;7.700;2023-04-25T10:47:34;100208.81;;;12.34;64.90
40940;BME280;26666;50.156;7.700;2023-04-25T10:52:38;100214.66;;;11.80;63.51
40940;BME280;26666;50.156;7.700;2023-04-25T10:57:42;100212.03;;;11.61;63.73
40940;BME280;26666;50.156;7.700;2023-04-25T11:02:45;100220.69;;;12.57;64.42
40940;BME280;26666;50.156;7.700;2023-04-25T11:07:50;100233.22;;;11.51;65.10
40940;BME280;26666;50.156;7.700;2023-04-25T11:13:06;100244.44;;;10.95;67.12
40940;BME280;26666;50.156;7.700;2023-04-25T11:18:08;100250.47;;;11.16;68.85
40940;BME280;26666;50.156;7.700;2023-04-25T11:23:13;100239.63;;;11.39;65.12
40940;BME280;26666;50.156;7.700;2023-04-25T11:28:20;100237.16;;;12.14;65.71
40940;BME280;26666;50.156;7.700;2023-04-25T11:33:23;100233.19;;;11.80;61.77
40940;BME280;26666;50.156;7.700;2023-04-25T11:38:25;100227.91;;;11.51;60.51
40940;BME280;26666;50.156;7.700;2023-04-25T11:43:31;100225.09;;;12.01;58.64
40940;BME280;26666;50.156;7.700;2023-04-25T11:48:37;100221.81;;;12.17;58.65
40940;BME280;26666;50.156;7.700;2023-04-25T11:53:41;100235.56;;;11.93;61.12
40940;BME280;26666;50.156;7.700;2023-04-25T11:58:57;100234.94;;;12.19;58.18
40940;BME280;26666;50.156;7.700;2023-04-25T12:04:10;100240.84;;;12.03;57.76
40940;BME280;26666;50.156;7.700;2023-04-25T12:09:13;100252.63;;;12.28;57.71
40940;BME280;26666;50.156;7.700;2023-04-25T12:14:24;100256.09;;;12.29;58.23
40940;BME280;26666;50.156;7.700;2023-04-25T12:19:26;100251.50;;;12.21;59.84
40940;BME280;26666;50.156;7.700;2023-04-25T12:24:33;100257.59;;;12.31;58.34
40940;BME280;26666;50.156;7.700;2023-04-25T12:29:50;100244.00;;;12.16;57.65
40940;BME280;26666;50.156;7.700;2023-04-25T12:34:52;100243.22;;;11.77;58.17
40940;BME280;26666;50.156;7.700;2023-04-25T12:39:54;100241.63;;;12.13;58.29
40940;BME280;26666;50.156;7.700;2023-04-25T12:44:57;100248.94;;;12.39;62.00
40940;BME280;26666;50.156;7.700;2023-04-25T12:49:58;100248.88;;;12.49;57.97
40940;BME280;26666;50.156;7.700;2023-04-25T12:55:00;100260.31;;;12.59;60.71
40940;BME280;26666;50.156;7.700;2023-04-25T13:00:04;100260.03;;;12.52;58.32
40940;BME280;26666;50.156;7.700;2023-04-25T13:05:07;100267.69;;;12.18;59.22
40940;BME280;26666;50.156;7.700;2023-04-25T13:10:09;100277.41;;;12.27;60.10
40940;BME280;26666;50.156;7.700;2023-04-25T13:15:12;100279.88;;;12.76;59.67
40940;BME280;26666;50.156;7.700;2023-04-25T13:20:14;100281.00;;;12.46;58.06
40940;BME280;26666;50.156;7.700;2023-04-25T13:25:16;100269.81;;;12.14;59.63
40940;BME280;26666;50.156;7.700;2023-04-25T13:30:20;100273.84;;;12.18;58.98
40940;BME280;26666;50.156;7.700;2023-04-25T13:35:22;100273.72;;;12.00;59.30
40940;BME280;26666;50.156;7.700;2023-04-25T13:40:24;100274.97;;;11.96;57.35
40940;BME280;26666;50.156;7.700;2023-04-25T13:45:27;100281.72;;;12.38;60.90
40940;BME280;26666;50.156;7.700;2023-04-25T13:50:32;100289.84;;;12.27;55.32
40940;BME280;26666;50.156;7.700;2023-04-25T13:55:34;100292.81;;;11.75;56.00
40940;BME280;26666;50.156;7.700;2023-04-25T14:00:38;100304.09;;;11.77;57.13
40940;BME280;26666;50.156;7.700;2023-04-25T14:05:41;100306.66;;;12.35;59.49
40940;BME280;26666;50.156;7.700;2023-04-25T14:10:43;100300.88;;;12.22;57.35
40940;BME280;26666;50.156;7.700;2023-04-25T14:15:46;100303.78;;;12.29;56.07
40940;BME280;26666;50.156;7.700;2023-04-25T14:20:48;100316.94;;;11.81;57.07
40940;BME280;26666;50.156;7.700;2023-04-25T14:25:49;100320.66;;;11.89;57.77
40940;BME280;26666;50.156;7.700;2023-04-25T14:30:53;100323.91;;;11.92;55.67
40940;BME280;26666;50.156;7.700;2023-04-25T14:35:54;100323.19;;;11.80;56.44
40940;BME280;26666;50.156;7.700;2023-04-25T14:40:56;100329.06;;;11.94;56.45
40940;BME280;26666;50.156;7.700;2023-04-25T14:45:59;100328.06;;;11.66;57.20
40940;BME280;26666;50.156;7.700;2023-04-25T14:51:01;100333.63;;;11.62;57.43
40940;BME280;26666;50.156;7.700;2023-04-25T14:56:03;100333.91;;;11.59;56.17
40940;BME280;26666;50.156;7.700;2023-04-25T15:01:06;100330.00;;;11.54;56.75
40940;BME280;26666;50.156;7.700;2023-04-25T15:06:08;100332.94;;;11.51;55.86
40940;BME280;26666;50.156;7.700;2023-04-25T15:11:09;100341.16;;;11.67;57.46
40940;BME280;26666;50.156;7.700;2023-04-25T15:16:12;100327.38;;;11.73;57.97
40940;BME280;26666;50.156;7.700;2023-04-25T15:21:14;100330.56;;;11.48;55.12
40940;BME280;26666;50.156;7.700;2023-04-25T15:26:16;100332.63;;;11.44;54.69
40940;BME280;26666;50.156;7.700;2023-04-25T15:31:19;100337.97;;;11.73;56.23
40940;BME280;26666;50.156;7.700;2023-04-25T15:36:21;100346.84;;;11.43;55.22
40940;BME280;26666;50.156;7.700;2023-04-25T15:41:23;100340.44;;;11.55;57.40
40940;BME280;26666;50.156;7.700;2023-04-25T15:46:26;100342.41;;;11.82;55.40
40940;BME280;26666;50.156;7.700;2023-04-25T15:51:28;100357.84;;;11.38;56.26
40940;BME280;26666;50.156;7.700;2023-04-25T15:56:29;100352.97;;;11.43;55.70
40940;BME280;26666;50.156;7.700;2023-04-25T16:01:32;100346.78;;;11.14;57.67
40940;BME280;26666;50.156;7.700;2023-04-25T16:06:34;100353.78;;;11.34;58.78
40940;BME280;26666;50.156;7.700;2023-04-25T16:11:36;100357.25;;;11.25;58.72
40940;BME280;26666;50.156;7.700;2023-04-25T16:16:39;100367.28;;;10.91;60.36
40940;BME280;26666;50.156;7.700;2023-04-25T16:21:41;100365.97;;;11.06;63.09
40940;BME280;26666;50.156;7.700;2023-04-25T16:26:43;100371.72;;;10.80;61.22
40940;BME280;26666;50.156;7.700;2023-04-25T16:31:46;100370.19;;;10.88;60.62
40940;BME280;26666;50.156;7.700;2023-04-25T16:36:48;100370.28;;;11.07;61.22
40940;BME280;26666;50.156;7.700;2023-04-25T16:41:50;100365.28;;;10.73;57.05
40940;BME280;26666;50.156;7.700;2023-04-25T16:46:53;100370.31;;;10.76;55.74
40940;BME280;26666;50.156;7.700;2023-04-25T16:51:55;100365.69;;;10.69;54.62
40940;BME280;26666;50.156;7.700;2023-04-25T16:56:57;100365.63;;;10.59;56.45
40940;BME280;26666;50.156;7.700;2023-04-25T17:02:00;100369.16;;;10.69;61.13
40940;BME280;26666;50.156;7.700;2023-04-25T17:07:02;100375.50;;;10.36;56.18
40940;BME280;26666;50.156;7.700;2023-04-25T17:12:04;100386.25;;;10.44;60.44
40940;BME280;26666;50.156;7.700;2023-04-25T17:17:07;100392.28;;;10.14;63.64
40940;BME280;26666;50.156;7.700;2023-04-25T17:22:09;100401.91;;;10.36;60.48
40940;BME280;26666;50.156;7.700;2023-04-25T17:27:10;100402.34;;;10.20;59.29
40940;BME280;26666;50.156;7.700;2023-04-25T17:32:14;100406.72;;;10.31;60.02
40940;BME280;26666;50.156;7.700;2023-04-25T17:37:18;100408.84;;;10.58;61.89
40940;BME280;26666;50.156;7.700;2023-04-25T17:42:19;100409.56;;;10.39;62.18
40940;BME280;26666;50.156;7.700;2023-04-25T17:47:22;100415.72;;;10.39;65.48
40940;BME280;26666;50.156;7.700;2023-04-25T17:52:25;100416.94;;;10.24;66.99
40940;BME280;26666;50.156;7.700;2023-04-25T17:57:26;100410.34;;;9.97;70.97
40940;BME280;26666;50.156;7.700;2023-04-25T18:02:29;100424.00;;;10.02;70.94
40940;BME280;26666;50.156;7.700;2023-04-25T18:07:31;100422.13;;;9.93;72.39
40940;BME280;26666;50.156;7.700;2023-04-25T18:12:33;100426.41;;;9.94;71.66
40940;BME280;26666;50.156;7.700;2023-04-25T18:17:36;100431.59;;;9.84;75.14
40940;BME280;26666;50.156;7.700;2023-04-25T18:22:38;100431.41;;;9.76;74.77
40940;BME280;26666;50.156;7.700;2023-04-25T18:27:40;100437.38;;;9.78;73.83
40940;BME280;26666;50.156;7.700;2023-04-25T18:32:43;100445.41;;;9.88;75.55
40940;BME280;26666;50.156;7.700;2023-04-25T18:37:45;100453.16;;;9.46;74.48
40940;BME280;26666;50.156;7.700;2023-04-25T18:42:46;100468.50;;;9.18;74.79
40940;BME280;26666;50.156;7.700;2023-04-25T18:47:49;100465.88;;;8.96;74.66
40940;BME280;26666;50.156;7.700;2023-04-25T18:52:51;100476.03;;;9.00;75.71
40940;BME280;26666;50.156;7.700;2023-04-25T18:57:53;100492.56;;;9.02;76.99
40940;BME280;26666;50.156;7.700;2023-04-25T19:02:56;100492.78;;;8.77;75.45
40940;BME280;26666;50.156;7.700;2023-04-25T19:07:58;100498.88;;;8.66;77.86
40940;BME280;26666;50.156;7.700;2023-04-25T19:12:59;100499.91;;;8.63;77.91
40940;BME280;26666;50.156;7.700;2023-04-25T19:18:03;100517.41;;;8.40;78.67
40940;BME280;26666;50.156;7.700;2023-04-25T19:23:04;100512.31;;;8.50;78.90
40940;BME280;26666;50.156;7.700;2023-04-25T19:28:06;100510.31;;;8.29;77.35
40940;BME280;26666;50.156;7.700;2023-04-25T19:33:09;100509.16;;;8.21;78.83
40940;BME280;26666;50.156;7.700;2023-04-25T19:38:11;100510.41;;;8.04;79.21
40940;BME280;26666;50.156;7.700;2023-04-25T19:43:12;100522.72;;;8.03;78.95
40940;BME280;26666;50.156;7.700;2023-04-25T19:48:16;100526.25;;;7.78;80.13
40940;BME280;26666;50.156;7.700;2023-04-25T19:53:17;100533.84;;;7.70;81.15
40940;BME280;26666;50.156;7.700;2023-04-25T19:58:19;100532.69;;;7.74;81.17
40940;BME280;26666;50.156;7.700;2023-04-25T20:03:22;100539.88;;;7.59;80.74
40940;BME280;26666;50.156;7.700;2023-04-25T20:08:24;100547.88;;;7.45;81.42
40940;BME280;26666;50.156;7.700;2023-04-25T20:13:27;100546.22;;;7.44;81.81
40940;BME280;26666;50.156;7.700;2023-04-25T20:18:30;100554.72;;;7.22;82.59
40940;BME280;26666;50.156;7.700;2023-04-25T20:23:32;100562.50;;;7.23;84.18
40940;BME280;26666;50.156;7.700;2023-04-25T20:28:33;100563.44;;;7.09;83.49
40940;BME280;26666;50.156;7.700;2023-04-25T20:33:36;100562.59;;;7.09;83.65
40940;BME280;26666;50.156;7.700;2023-04-25T20:38:38;100563.03;;;7.03;85.30
40940;BME280;26666;50.156;7.700;2023-04-25T20:43:40;100569.44;;;7.11;85.32
40940;BME280;26666;50.156;7.700;2023-04-25T20:48:43;100567.94;;;6.82;87.03
40940;BME280;26666;50.156;7.700;2023-04-25T20:53:45;100572.81;;;6.61;87.66
40940;BME280;26666;50.156;7.700;2023-04-25T20:58:46;100567.88;;;6.69;86.60
40940;BME280;26666;50.156;7.700;2023-04-25T21:03:49;100572.63;;;6.64;87.01
40940;BME280;26666;50.156;7.700;2023-04-25T21:08:51;100574.88;;;6.56;86.02
40940;BME280;26666;50.156;7.700;2023-04-25T21:13:53;100568.25;;;6.77;85.56
40940;BME280;26666;50.156;7.700;2023-04-25T21:18:56;100571.31;;;6.57;87.40
40940;BME280;26666;50.156;7.700;2023-04-25T21:23:58;100575.41;;;6.48;89.58
40940;BME280;26666;50.156;7.700;2023-04-25T21:28:59;100571.56;;;6.66;88.69
40940;BME280;26666;50.156;7.700;2023-04-25T21:34:03;100573.28;;;6.40;87.74
40940;BME280;26666;50.156;7.700;2023-04-25T21:39:04;100573.47;;;6.37;88.43
40940;BME280;26666;50.156;7.700;2023-04-25T21:44:06;100575.91;;;6.26;88.23
40940;BME280;26666;50.156;7.700;2023-04-25T21:49:09;100583.78;;;6.26;89.43
40940;BME280;26666;50.156;7.700;2023-04-25T21:54:11;100597.03;;;6.10;88.86
40940;BME280;26666;50.156;7.700;2023-04-25T21:59:12;100604.00;;;6.11;89.75
40940;BME280;26666;50.156;7.700;2023-04-25T22:04:15;100599.94;;;5.91;89.56
40940;BME280;26666;50.156;7.700;2023-04-25T22:09:18;100607.63;;;5.94;88.89
40940;BME280;26666;50.156;7.700;2023-04-25T22:14:19;100607.44;;;5.97;88.71
40940;BME280;26666;50.156;7.700;2023-04-25T22:19:22;100608.28;;;5.83;88.23
40940;BME280;26666;50.156;7.700;2023-04-25T22:24:24;100611.94;;;5.81;88.23
40940;BME280;26666;50.156;7.700;2023-04-25T22:29:26;100628.41;;;5.54;89.12
40940;BME280;26666;50.156;7.700;2023-04-25T22:34:29;100625.97;;;5.65;86.97
40940;BME280;26666;50.156;7.700;2023-04-25T22:39:31;100640.69;;;5.68;87.65
40940;BME280;26666;50.156;7.700;2023-04-25T22:44:32;100651.22;;;5.38;88.85
40940;BME280;26666;50.156;7.700;2023-04-25T22:49:35;100646.59;;;5.27;89.36
40940;BME280;26666;50.156;7.700;2023-04-25T22:54:37;100650.19;;;5.26;89.65
40940;BME280;26666;50.156;7.700;2023-04-25T22:59:39;100651.00;;;5.12;90.41
40940;BME280;26666;50.156;7.700;2023-04-25T23:04:42;100650.72;;;5.17;90.19
40940;BME280;26666;50.156;7.700;2023-04-25T23:09:43;100654.38;;;5.28;89.01
40940;BME280;26666;50.156;7.700;2023-04-25T23:14:47;100659.16;;;5.06;90.03
40940;BME280;26666;50.156;7.700;2023-04-25T23:19:50;100671.13;;;4.96;90.65
40940;BME280;26666;50.156;7.700;2023-04-25T23:24:52;100664.53;;;5.04;89.14
40940;BME280;26666;50.156;7.700;2023-04-25T23:29:54;100666.28;;;5.04;89.86
40940;BME280;26666;50.156;7.700;2023-04-25T23:34:57;100670.13;;;4.98;90.18
40940;BME280;26666;50.156;7.700;2023-04-25T23:39:58;100678.22;;;4.93;89.14
40940;BME280;26666;50.156;7.700;2023-04-25T23:45:00;100675.94;;;4.87;89.57
40940;BME280;26666;50.156;7.700;2023-04-25T23:50:04;100683.56;;;4.76;89.67
40940;BME280;26666;50.156;7.700;2023-04-25T23:55:06;100687.53;;;4.83;89.36
